sensor_id;sensor_type;location;lat;lon;timestamp;P1;durP1;ratioP1;P2;durP2;ratioP2
22967;SDS011;11650;48.106;-1.696;2023-04-15T00:01:35;11.97;;;1.40;;
22967;SDS011;11650;48.106;-1.696;2023-04-15T00:04:02;9.40;;;1.53;;
22967;SDS011;11650;48.106;-1.696;2023-04-15T00:06:27;12.30;;;1.73;;
22967;SDS011;11650;48.106;-1.696;2023-04-15T00:08:53;5.90;;;1.40;;
22967;SDS011;11650;48.106;-1.696;2023-04-15T00:11:19;8.13;;;1.70;;
22967;SDS011;11650;48.106;-1.696;2023-04-15T00:13:45;10.13;;;1.70;;
22967;SDS011;11650;48.106;-1.696;2023-04-15T00:16:10;7.07;;;1.40;;
22967;SDS011;11650;48.106;-1.696;2023-04-15T00:18:36;7.90;;;1.37;;
22967;SDS011;11650;48.106;-1.696;2023-04-15T00:21:03;7.50;;;1.77;;
22967;SDS011;11650;48.106;-1.696;2023-04-15T00:23:29;9.87;;;1.77;;
22967;SDS011;11650;48.106;-1.696;2023-04-15T00:25:55;8.73;;;1.63;;
22967;SDS011;11650;48.106;-1.696;2023-04-15T00:28:21;5.73;;;1.70;;
22967;SDS011;11650;48.106;-1.696;2023-04-15T00:30:47;6.97;;;1.40;;
22967;SDS011;11650;48.106;-1.696;2023-04-15T00:33:13;12.87;;;1.70;;
22967;SDS011;11650;48.106;-1.696;2023-04-15T00:35:40;6.43;;;1.40;;
22967;SDS011;11650;48.106;-1.696;2023-04-15T00:38:06;7.53;;;1.47;;
22967;SDS011;11650;48.106;-1.696;2023-04-15T00:40:34;5.83;;;1.60;;
22967;SDS011;11650;48.106;-1.696;2023-04-15T00:43:01;7.50;;;1.60;;
22967;SDS011;11650;48.106;-1.696;2023-04-15T00:45:28;8.00;;;1.57;;
22967;SDS011;11650;48.106;-1.696;2023-04-15T00:47:54;7.23;;;1.67;;
22967;SDS011;11650;48.106;-1.696;2023-04-15T00:50:20;8.57;;;1.83;;
22967;SDS011;11650;48.106;-1.696;2023-04-15T00:52:45;11.23;;;1.97;;
22967;SDS011;11650;48.106;-1.696;2023-04-15T00:55:11;6.87;;;1.50;;
22967;SDS011;11650;48.106;-1.696;2023-04-15T00:57:37;9.20;;;1.73;;
22967;SDS011;11650;48.106;-1.696;2023-04-15T01:00:04;7.17;;;1.40;;
22967;SDS011;11650;48.106;-1.696;2023-04-15T01:02:35;8.57;;;1.80;;
22967;SDS011;11650;48.106;-1.696;2023-04-15T01:05:01;5.73;;;1.50;;
22967;SDS011;11650;48.106;-1.696;2023-04-15T01:07:31;8.40;;;1.43;;
22967;SDS011;11650;48.106;-1.696;2023-04-15T01:09:57;7.53;;;2.03;;
22967;SDS011;11650;48.106;-1.696;2023-04-15T01:12:23;9.30;;;1.67;;
22967;SDS011;11650;48.106;-1.696;2023-04-15T01:14:50;6.93;;;1.63;;
22967;SDS011;11650;48.106;-1.696;2023-04-15T01:17:17;9.03;;;1.37;;
22967;SDS011;11650;48.106;-1.696;2023-04-15T01:19:43;7.53;;;1.40;;
22967;SDS011;11650;48.106;-1.696;2023-04-15T01:22:09;5.77;;;1.50;;
22967;SDS011;11650;48.106;-1.696;2023-04-15T01:24:35;5.87;;;1.30;;
22967;SDS011;11650;48.106;-1.696;2023-04-15T01:27:01;9.87;;;1.33;;
22967;SDS011;11650;48.106;-1.696;2023-04-15T01:29:29;6.17;;;1.37;;
22967;SDS011;11650;48.106;-1.696;2023-04-15T01:31:56;8.43;;;1.70;;
22967;SDS011;11650;48.106;-1.696;2023-04-15T01:34:22;6.60;;;1.30;;
22967;SDS011;11650;48.106;-1.696;2023-04-15T01:36:47;9.30;;;1.77;;
22967;SDS011;11650;48.106;-1.696;2023-04-15T01:39:13;6.40;;;1.33;;
22967;SDS011;11650;48.106;-1.696;2023-04-15T01:41:39;7.40;;;1.70;;
22967;SDS011;11650;48.106;-1.696;2023-04-15T01:44:06;7.20;;;1.40;;
22967;SDS011;11650;48.106;-1.696;2023-04-15T01:46:32;6.37;;;1.60;;
22967;SDS011;11650;48.106;-1.696;2023-04-15T01:48:58;5.83;;;1.50;;
22967;SDS011;11650;48.106;-1.696;2023-04-15T01:51:24;4.80;;;1.40;;
22967;SDS011;11650;48.106;-1.696;2023-04-15T01:53:51;10.97;;;1.87;;
22967;SDS011;11650;48.106;-1.696;2023-04-15T01:56:17;5.40;;;1.20;;
22967;SDS011;11650;48.106;-1.696;2023-04-15T01:58:43;7.47;;;1.37;;
22967;SDS011;11650;48.106;-1.696;2023-04-15T02:01:08;11.20;;;1.70;;
22967;SDS011;11650;48.106;-1.696;2023-04-15T02:03:35;5.00;;;1.60;;
22967;SDS011;11650;48.106;-1.696;2023-04-15T02:06:01;9.00;;;1.87;;
22967;SDS011;11650;48.106;-1.696;2023-04-15T02:08:28;8.30;;;1.90;;
22967;SDS011;11650;48.106;-1.696;2023-04-15T02:10:54;7.63;;;1.70;;
22967;SDS011;11650;48.106;-1.696;2023-04-15T02:13:20;10.33;;;1.50;;
22967;SDS011;11650;48.106;-1.696;2023-04-15T02:15:46;6.73;;;1.70;;
22967;SDS011;11650;48.106;-1.696;2023-04-15T02:18:16;6.63;;;1.70;;
22967;SDS011;11650;48.106;-1.696;2023-04-15T02:20:42;8.33;;;1.70;;
22967;SDS011;11650;48.106;-1.696;2023-04-15T02:23:08;7.80;;;1.87;;
22967;SDS011;11650;48.106;-1.696;2023-04-15T02:25:33;5.87;;;1.87;;
22967;SDS011;11650;48.106;-1.696;2023-04-15T02:27:59;11.13;;;1.63;;
22967;SDS011;11650;48.106;-1.696;2023-04-15T02:30:25;10.33;;;1.70;;
22967;SDS011;11650;48.106;-1.696;2023-04-15T02:32:51;6.37;;;1.83;;
22967;SDS011;11650;48.106;-1.696;2023-04-15T02:35:16;9.30;;;2.53;;
22967;SDS011;11650;48.106;-1.696;2023-04-15T02:37:45;9.00;;;1.67;;
22967;SDS011;11650;48.106;-1.696;2023-04-15T02:40:11;9.73;;;1.57;;
22967;SDS011;11650;48.106;-1.696;2023-04-15T02:42:37;10.57;;;1.80;;
22967;SDS011;11650;48.106;-1.696;2023-04-15T02:45:04;7.47;;;1.50;;
22967;SDS011;11650;48.106;-1.696;2023-04-15T02:47:31;7.83;;;1.60;;
22967;SDS011;11650;48.106;-1.696;2023-04-15T02:49:57;8.97;;;1.80;;
22967;SDS011;11650;48.106;-1.696;2023-04-15T02:52:24;10.13;;;1.73;;
22967;SDS011;11650;48.106;-1.696;2023-04-15T02:54:53;13.40;;;1.80;;
22967;SDS011;11650;48.106;-1.696;2023-04-15T02:57:24;8.07;;;1.80;;
22967;SDS011;11650;48.106;-1.696;2023-04-15T02:59:53;10.63;;;1.70;;
22967;SDS011;11650;48.106;-1.696;2023-04-15T03:02:19;7.23;;;1.87;;
22967;SDS011;11650;48.106;-1.696;2023-04-15T03:04:45;7.70;;;1.40;;
22967;SDS011;11650;48.106;-1.696;2023-04-15T03:07:10;11.97;;;2.40;;
22967;SDS011;11650;48.106;-1.696;2023-04-15T03:09:36;8.00;;;2.13;;
22967;SDS011;11650;48.106;-1.696;2023-04-15T03:12:04;9.13;;;1.90;;
22967;SDS011;11650;48.106;-1.696;2023-04-15T03:14:30;8.47;;;1.73;;
22967;SDS011;11650;48.106;-1.696;2023-04-15T03:16:55;10.10;;;2.00;;
22967;SDS011;11650;48.106;-1.696;2023-04-15T03:19:23;13.00;;;1.90;;
22967;SDS011;11650;48.106;-1.696;2023-04-15T03:21:49;14.97;;;1.90;;
22967;SDS011;11650;48.106;-1.696;2023-04-15T03:24:14;11.47;;;2.20;;
22967;SDS011;11650;48.106;-1.696;2023-04-15T03:26:40;12.77;;;2.13;;
22967;SDS011;11650;48.106;-1.696;2023-04-15T03:29:06;11.17;;;1.77;;
22967;SDS011;11650;48.106;-1.696;2023-04-15T03:31:31;6.93;;;1.80;;
22967;SDS011;11650;48.106;-1.696;2023-04-15T03:33:57;6.43;;;1.90;;
22967;SDS011;11650;48.106;-1.696;2023-04-15T03:36:23;13.63;;;2.00;;
22967;SDS011;11650;48.106;-1.696;2023-04-15T03:38:48;14.00;;;2.40;;
22967;SDS011;11650;48.106;-1.696;2023-04-15T03:41:14;15.00;;;2.33;;
22967;SDS011;11650;48.106;-1.696;2023-04-15T03:43:39;10.80;;;2.07;;
22967;SDS011;11650;48.106;-1.696;2023-04-15T03:46:05;10.07;;;2.13;;
22967;SDS011;11650;48.106;-1.696;2023-04-15T03:48:31;11.47;;;2.10;;
22967;SDS011;11650;48.106;-1.696;2023-04-15T03:50:56;10.17;;;2.20;;
22967;SDS011;11650;48.106;-1.696;2023-04-15T03:53:22;10.20;;;1.97;;
22967;SDS011;11650;48.106;-1.696;2023-04-15T03:55:48;10.87;;;1.90;;
22967;SDS011;11650;48.106;-1.696;2023-04-15T03:58:14;13.27;;;2.20;;
22967;SDS011;11650;48.106;-1.696;2023-04-15T04:00:39;10.83;;;2.53;;
22967;SDS011;11650;48.106;-1.696;2023-04-15T04:03:06;14.93;;;2.63;;
22967;SDS011;11650;48.106;-1.696;2023-04-15T04:05:32;17.23;;;2.40;;
22967;SDS011;11650;48.106;-1.696;2023-04-15T04:07:58;13.50;;;2.37;;
22967;SDS011;11650;48.106;-1.696;2023-04-15T04:10:23;8.77;;;2.40;;
22967;SDS011;11650;48.106;-1.696;2023-04-15T04:12:49;10.07;;;2.30;;
22967;SDS011;11650;48.106;-1.696;2023-04-15T04:15:15;12.73;;;2.60;;
22967;SDS011;11650;48.106;-1.696;2023-04-15T04:17:41;13.53;;;2.97;;
22967;SDS011;11650;48.106;-1.696;2023-04-15T04:20:08;16.63;;;3.00;;
22967;SDS011;11650;48.106;-1.696;2023-04-15T04:22:37;11.40;;;2.37;;
22967;SDS011;11650;48.106;-1.696;2023-04-15T04:25:04;14.43;;;2.73;;
22967;SDS011;11650;48.106;-1.696;2023-04-15T04:27:32;18.57;;;3.43;;
22967;SDS011;11650;48.106;-1.696;2023-04-15T04:29:58;11.87;;;2.40;;
22967;SDS011;11650;48.106;-1.696;2023-04-15T04:32:24;12.77;;;2.50;;
22967;SDS011;11650;48.106;-1.696;2023-04-15T04:34:50;13.37;;;2.57;;
22967;SDS011;11650;48.106;-1.696;2023-04-15T04:37:15;10.90;;;2.50;;
22967;SDS011;11650;48.106;-1.696;2023-04-15T04:39:41;11.63;;;2.30;;
22967;SDS011;11650;48.106;-1.696;2023-04-15T04:42:06;16.00;;;2.80;;
22967;SDS011;11650;48.106;-1.696;2023-04-15T04:44:32;14.20;;;2.87;;
22967;SDS011;11650;48.106;-1.696;2023-04-15T04:46:58;12.83;;;2.47;;
22967;SDS011;11650;48.106;-1.696;2023-04-15T04:49:23;13.33;;;2.73;;
22967;SDS011;11650;48.106;-1.696;2023-04-15T04:51:49;14.00;;;2.77;;
22967;SDS011;11650;48.106;-1.696;2023-04-15T04:54:15;17.73;;;2.80;;
22967;SDS011;11650;48.106;-1.696;2023-04-15T04:56:41;19.97;;;3.10;;
22967;SDS011;11650;48.106;-1.696;2023-04-15T04:59:07;17.90;;;3.03;;
22967;SDS011;11650;48.106;-1.696;2023-04-15T05:01:33;18.37;;;2.90;;
22967;SDS011;11650;48.106;-1.696;2023-04-15T05:03:59;12.67;;;2.50;;
22967;SDS011;11650;48.106;-1.696;2023-04-15T05:06:25;16.37;;;3.07;;
22967;SDS011;11650;48.106;-1.696;2023-04-15T05:08:51;14.97;;;2.80;;
22967;SDS011;11650;48.106;-1.696;2023-04-15T05:11:17;17.07;;;3.00;;
22967;SDS011;11650;48.106;-1.696;2023-04-15T05:13:42;15.37;;;3.20;;
22967;SDS011;11650;48.106;-1.696;2023-04-15T05:16:08;14.77;;;2.80;;
22967;SDS011;11650;48.106;-1.696;2023-04-15T05:18:34;15.40;;;2.47;;
22967;SDS011;11650;48.106;-1.696;2023-04-15T05:21:00;16.13;;;3.10;;
22967;SDS011;11650;48.106;-1.696;2023-04-15T05:23:26;17.53;;;3.30;;
22967;SDS011;11650;48.106;-1.696;2023-04-15T05:25:52;16.10;;;3.10;;
22967;SDS011;11650;48.106;-1.696;2023-04-15T05:28:18;13.50;;;2.67;;
22967;SDS011;11650;48.106;-1.696;2023-04-15T05:30:43;16.27;;;3.43;;
22967;SDS011;11650;48.106;-1.696;2023-04-15T05:33:09;15.20;;;3.50;;
22967;SDS011;11650;48.106;-1.696;2023-04-15T05:35:35;16.47;;;3.30;;
22967;SDS011;11650;48.106;-1.696;2023-04-15T05:38:00;17.60;;;3.40;;
22967;SDS011;11650;48.106;-1.696;2023-04-15T05:40:26;20.53;;;3.20;;
22967;SDS011;11650;48.106;-1.696;2023-04-15T05:42:52;21.30;;;3.23;;
22967;SDS011;11650;48.106;-1.696;2023-04-15T05:45:17;15.20;;;2.80;;
22967;SDS011;11650;48.106;-1.696;2023-04-15T05:47:43;15.77;;;3.47;;
22967;SDS011;11650;48.106;-1.696;2023-04-15T05:50:09;14.53;;;3.20;;
22967;SDS011;11650;48.106;-1.696;2023-04-15T05:52:35;16.70;;;3.73;;
22967;SDS011;11650;48.106;-1.696;2023-04-15T05:55:01;19.33;;;3.07;;
22967;SDS011;11650;48.106;-1.696;2023-04-15T05:57:26;13.20;;;3.17;;
22967;SDS011;11650;48.106;-1.696;2023-04-15T05:59:52;17.10;;;3.13;;
22967;SDS011;11650;48.106;-1.696;2023-04-15T06:02:18;22.10;;;3.97;;
22967;SDS011;11650;48.106;-1.696;2023-04-15T06:04:43;19.80;;;2.70;;
22967;SDS011;11650;48.106;-1.696;2023-04-15T06:07:09;17.90;;;3.03;;
22967;SDS011;11650;48.106;-1.696;2023-04-15T06:09:35;18.90;;;2.87;;
22967;SDS011;11650;48.106;-1.696;2023-04-15T06:12:00;15.23;;;3.10;;
22967;SDS011;11650;48.106;-1.696;2023-04-15T06:14:27;15.87;;;2.70;;
22967;SDS011;11650;48.106;-1.696;2023-04-15T06:16:52;14.70;;;2.73;;
22967;SDS011;11650;48.106;-1.696;2023-04-15T06:19:18;15.90;;;3.10;;
22967;SDS011;11650;48.106;-1.696;2023-04-15T06:21:44;19.40;;;2.80;;
22967;SDS011;11650;48.106;-1.696;2023-04-15T06:24:10;14.83;;;2.50;;
22967;SDS011;11650;48.106;-1.696;2023-04-15T06:26:36;18.40;;;3.03;;
22967;SDS011;11650;48.106;-1.696;2023-04-15T06:29:02;17.40;;;3.43;;
22967;SDS011;11650;48.106;-1.696;2023-04-15T06:31:27;18.60;;;2.80;;
22967;SDS011;11650;48.106;-1.696;2023-04-15T06:33:53;15.70;;;2.53;;
22967;SDS011;11650;48.106;-1.696;2023-04-15T06:36:18;19.10;;;3.00;;
22967;SDS011;11650;48.106;-1.696;2023-04-15T06:38:44;13.27;;;2.77;;
22967;SDS011;11650;48.106;-1.696;2023-04-15T06:41:10;15.50;;;2.80;;
22967;SDS011;11650;48.106;-1.696;2023-04-15T06:43:36;12.57;;;3.03;;
22967;SDS011;11650;48.106;-1.696;2023-04-15T06:46:02;22.13;;;3.50;;
22967;SDS011;11650;48.106;-1.696;2023-04-15T06:48:28;18.40;;;2.77;;
22967;SDS011;11650;48.106;-1.696;2023-04-15T06:50:53;16.63;;;3.30;;
22967;SDS011;11650;48.106;-1.696;2023-04-15T06:53:19;18.93;;;2.80;;
22967;SDS011;11650;48.106;-1.696;2023-04-15T06:55:46;18.13;;;2.87;;
22967;SDS011;11650;48.106;-1.696;2023-04-15T06:58:11;23.00;;;3.13;;
22967;SDS011;11650;48.106;-1.696;2023-04-15T07:00:37;19.07;;;2.80;;
22967;SDS011;11650;48.106;-1.696;2023-04-15T07:03:03;17.17;;;2.67;;
22967;SDS011;11650;48.106;-1.696;2023-04-15T07:05:29;14.00;;;2.90;;
22967;SDS011;11650;48.106;-1.696;2023-04-15T07:07:56;16.67;;;3.07;;
22967;SDS011;11650;48.106;-1.696;2023-04-15T07:10:22;13.73;;;3.27;;
22967;SDS011;11650;48.106;-1.696;2023-04-15T07:12:48;13.87;;;2.73;;
22967;SDS011;11650;48.106;-1.696;2023-04-15T07:15:14;12.80;;;2.77;;
22967;SDS011;11650;48.106;-1.696;2023-04-15T07:17:40;19.30;;;3.03;;
22967;SDS011;11650;48.106;-1.696;2023-04-15T07:20:07;18.40;;;3.20;;
22967;SDS011;11650;48.106;-1.696;2023-04-15T07:22:33;14.00;;;3.27;;
22967;SDS011;11650;48.106;-1.696;2023-04-15T07:24:59;15.77;;;2.90;;
22967;SDS011;11650;48.106;-1.696;2023-04-15T07:27:25;17.57;;;3.27;;
22967;SDS011;11650;48.106;-1.696;2023-04-15T07:29:51;16.27;;;2.73;;
22967;SDS011;11650;48.106;-1.696;2023-04-15T07:32:17;19.17;;;2.87;;
22967;SDS011;11650;48.106;-1.696;2023-04-15T07:34:43;14.97;;;2.77;;
22967;SDS011;11650;48.106;-1.696;2023-04-15T07:37:09;19.37;;;2.80;;
22967;SDS011;11650;48.106;-1.696;2023-04-15T07:39:34;13.67;;;2.40;;
22967;SDS011;11650;48.106;-1.696;2023-04-15T07:42:01;16.50;;;2.87;;
22967;SDS011;11650;48.106;-1.696;2023-04-15T07:44:28;23.97;;;3.77;;
22967;SDS011;11650;48.106;-1.696;2023-04-15T07:46:54;16.50;;;2.73;;
22967;SDS011;11650;48.106;-1.696;2023-04-15T07:49:20;12.97;;;2.30;;
22967;SDS011;11650;48.106;-1.696;2023-04-15T07:51:46;12.93;;;2.83;;
22967;SDS011;11650;48.106;-1.696;2023-04-15T07:54:13;17.73;;;3.67;;
22967;SDS011;11650;48.106;-1.696;2023-04-15T07:56:39;14.90;;;3.03;;
22967;SDS011;11650;48.106;-1.696;2023-04-15T07:59:08;17.17;;;2.73;;
22967;SDS011;11650;48.106;-1.696;2023-04-15T08:01:34;13.90;;;2.80;;
22967;SDS011;11650;48.106;-1.696;2023-04-15T08:04:00;10.47;;;2.53;;
22967;SDS011;11650;48.106;-1.696;2023-04-15T08:06:27;15.17;;;2.37;;
22967;SDS011;11650;48.106;-1.696;2023-04-15T08:08:52;12.37;;;2.87;;
22967;SDS011;11650;48.106;-1.696;2023-04-15T08:11:19;18.57;;;2.87;;
22967;SDS011;11650;48.106;-1.696;2023-04-15T08:13:45;10.63;;;2.53;;
22967;SDS011;11650;48.106;-1.696;2023-04-15T08:16:19;15.93;;;3.00;;
22967;SDS011;11650;48.106;-1.696;2023-04-15T08:18:49;15.27;;;2.47;;
22967;SDS011;11650;48.106;-1.696;2023-04-15T08:21:16;14.63;;;2.53;;
22967;SDS011;11650;48.106;-1.696;2023-04-15T08:23:43;14.63;;;2.40;;
22967;SDS011;11650;48.106;-1.696;2023-04-15T08:26:09;17.47;;;2.80;;
22967;SDS011;11650;48.106;-1.696;2023-04-15T08:28:37;13.00;;;2.10;;
22967;SDS011;11650;48.106;-1.696;2023-04-15T08:31:03;13.37;;;2.30;;
22967;SDS011;11650;48.106;-1.696;2023-04-15T08:33:29;9.33;;;1.80;;
22967;SDS011;11650;48.106;-1.696;2023-04-15T08:35:55;15.20;;;2.90;;
22967;SDS011;11650;48.106;-1.696;2023-04-15T08:38:21;13.10;;;2.40;;
22967;SDS011;11650;48.106;-1.696;2023-04-15T08:40:47;15.40;;;2.20;;
22967;SDS011;11650;48.106;-1.696;2023-04-15T08:43:20;13.47;;;2.50;;
22967;SDS011;11650;48.106;-1.696;2023-04-15T08:45:52;10.73;;;2.70;;
22967;SDS011;11650;48.106;-1.696;2023-04-15T08:48:18;9.20;;;2.23;;
22967;SDS011;11650;48.106;-1.696;2023-04-15T08:50:44;7.53;;;2.10;;
22967;SDS011;11650;48.106;-1.696;2023-04-15T08:53:11;8.90;;;2.27;;
22967;SDS011;11650;48.106;-1.696;2023-04-15T08:55:45;14.17;;;2.80;;
22967;SDS011;11650;48.106;-1.696;2023-04-15T08:58:15;9.50;;;2.07;;
22967;SDS011;11650;48.106;-1.696;2023-04-15T09:00:42;11.10;;;1.93;;
22967;SDS011;11650;48.106;-1.696;2023-04-15T09:03:08;6.23;;;1.90;;
22967;SDS011;11650;48.106;-1.696;2023-04-15T09:05:36;9.70;;;1.80;;
22967;SDS011;11650;48.106;-1.696;2023-04-15T09:08:03;6.00;;;1.53;;
22967;SDS011;11650;48.106;-1.696;2023-04-15T09:10:29;6.17;;;1.20;;
22967;SDS011;11650;48.106;-1.696;2023-04-15T09:12:56;8.73;;;1.87;;
22967;SDS011;11650;48.106;-1.696;2023-04-15T09:15:25;12.37;;;1.70;;
22967;SDS011;11650;48.106;-1.696;2023-04-15T09:17:53;8.00;;;2.03;;
22967;SDS011;11650;48.106;-1.696;2023-04-15T09:20:19;5.73;;;1.30;;
22967;SDS011;11650;48.106;-1.696;2023-04-15T09:22:46;8.47;;;1.50;;
22967;SDS011;11650;48.106;-1.696;2023-04-15T09:27:50;9.93;;;1.73;;
22967;SDS011;11650;48.106;-1.696;2023-04-15T09:30:16;4.53;;;1.43;;
22967;SDS011;11650;48.106;-1.696;2023-04-15T09:32:55;9.33;;;1.50;;
22967;SDS011;11650;48.106;-1.696;2023-04-15T09:35:26;7.40;;;1.60;;
22967;SDS011;11650;48.106;-1.696;2023-04-15T09:37:53;7.37;;;1.53;;
22967;SDS011;11650;48.106;-1.696;2023-04-15T09:40:40;7.40;;;1.53;;
22967;SDS011;11650;48.106;-1.696;2023-04-15T09:43:06;5.20;;;1.60;;
22967;SDS011;11650;48.106;-1.696;2023-04-15T09:45:33;7.47;;;1.87;;
22967;SDS011;11650;48.106;-1.696;2023-04-15T09:50:41;8.07;;;1.77;;
22967;SDS011;11650;48.106;-1.696;2023-04-15T09:53:08;7.73;;;1.50;;
22967;SDS011;11650;48.106;-1.696;2023-04-15T09:55:36;8.17;;;1.63;;
22967;SDS011;11650;48.106;-1.696;2023-04-15T09:58:01;5.07;;;1.70;;
22967;SDS011;11650;48.106;-1.696;2023-04-15T10:00:33;7.80;;;1.70;;
22967;SDS011;11650;48.106;-1.696;2023-04-15T10:03:00;6.57;;;1.63;;
22967;SDS011;11650;48.106;-1.696;2023-04-15T10:05:26;5.53;;;1.50;;
22967;SDS011;11650;48.106;-1.696;2023-04-15T10:07:53;4.80;;;1.20;;
22967;SDS011;11650;48.106;-1.696;2023-04-15T10:10:19;5.03;;;1.40;;
22967;SDS011;11650;48.106;-1.696;2023-04-15T10:12:45;6.93;;;1.63;;
22967;SDS011;11650;48.106;-1.696;2023-04-15T10:15:14;7.70;;;1.60;;
22967;SDS011;11650;48.106;-1.696;2023-04-15T10:17:42;7.87;;;1.60;;
22967;SDS011;11650;48.106;-1.696;2023-04-15T10:20:09;5.43;;;1.23;;
22967;SDS011;11650;48.106;-1.696;2023-04-15T10:22:36;5.97;;;1.30;;
22967;SDS011;11650;48.106;-1.696;2023-04-15T10:25:02;4.47;;;1.40;;
22967;SDS011;11650;48.106;-1.696;2023-04-15T10:27:30;7.10;;;1.70;;
22967;SDS011;11650;48.106;-1.696;2023-04-15T10:29:56;7.33;;;1.90;;
22967;SDS011;11650;48.106;-1.696;2023-04-15T10:32:24;6.00;;;1.30;;
22967;SDS011;11650;48.106;-1.696;2023-04-15T10:34:51;7.90;;;1.53;;
22967;SDS011;11650;48.106;-1.696;2023-04-15T10:37:21;3.27;;;1.10;;
22967;SDS011;11650;48.106;-1.696;2023-04-15T10:39:57;7.37;;;1.60;;
22967;SDS011;11650;48.106;-1.696;2023-04-15T10:42:23;5.03;;;1.23;;
22967;SDS011;11650;48.106;-1.696;2023-04-15T10:44:49;6.33;;;1.53;;
22967;SDS011;11650;48.106;-1.696;2023-04-15T10:47:17;6.43;;;1.50;;
22967;SDS011;11650;48.106;-1.696;2023-04-15T10:49:48;7.37;;;1.37;;
22967;SDS011;11650;48.106;-1.696;2023-04-15T10:52:16;6.53;;;1.10;;
22967;SDS011;11650;48.106;-1.696;2023-04-15T10:54:46;4.60;;;1.70;;
22967;SDS011;11650;48.106;-1.696;2023-04-15T10:57:21;4.90;;;1.70;;
22967;SDS011;11650;48.106;-1.696;2023-04-15T11:05:13;6.57;;;1.10;;
22967;SDS011;11650;48.106;-1.696;2023-04-15T11:07:45;2.93;;;1.10;;
22967;SDS011;11650;48.106;-1.696;2023-04-15T11:12:38;3.67;;;1.10;;
22967;SDS011;11650;48.106;-1.696;2023-04-15T11:20:51;3.70;;;1.00;;
22967;SDS011;11650;48.106;-1.696;2023-04-15T11:25:58;5.43;;;1.20;;
22967;SDS011;11650;48.106;-1.696;2023-04-15T11:28:26;3.50;;;1.30;;
22967;SDS011;11650;48.106;-1.696;2023-04-15T11:30:52;4.33;;;1.20;;
22967;SDS011;11650;48.106;-1.696;2023-04-15T11:33:19;5.60;;;1.73;;
22967;SDS011;11650;48.106;-1.696;2023-04-15T11:35:46;6.67;;;1.70;;
22967;SDS011;11650;48.106;-1.696;2023-04-15T11:38:12;3.80;;;1.30;;
22967;SDS011;11650;48.106;-1.696;2023-04-15T11:40:39;4.57;;;1.20;;
22967;SDS011;11650;48.106;-1.696;2023-04-15T11:45:32;4.53;;;1.37;;
22967;SDS011;11650;48.106;-1.696;2023-04-15T11:48:08;5.23;;;1.10;;
22967;SDS011;11650;48.106;-1.696;2023-04-15T11:50:35;3.77;;;1.30;;
22967;SDS011;11650;48.106;-1.696;2023-04-15T11:53:03;4.57;;;1.20;;
22967;SDS011;11650;48.106;-1.696;2023-04-15T11:55:29;3.43;;;1.13;;
22967;SDS011;11650;48.106;-1.696;2023-04-15T12:00:36;4.67;;;1.20;;
22967;SDS011;11650;48.106;-1.696;2023-04-15T12:03:14;3.73;;;1.00;;
22967;SDS011;11650;48.106;-1.696;2023-04-15T12:06:02;4.43;;;1.20;;
22967;SDS011;11650;48.106;-1.696;2023-04-15T12:11:32;7.43;;;1.17;;
22967;SDS011;11650;48.106;-1.696;2023-04-15T12:14:06;4.70;;;1.10;;
22967;SDS011;11650;48.106;-1.696;2023-04-15T12:16:32;5.27;;;1.20;;
22967;SDS011;11650;48.106;-1.696;2023-04-15T12:18:59;4.17;;;1.00;;
22967;SDS011;11650;48.106;-1.696;2023-04-15T12:21:33;3.90;;;1.10;;
22967;SDS011;11650;48.106;-1.696;2023-04-15T12:24:00;5.77;;;1.07;;
22967;SDS011;11650;48.106;-1.696;2023-04-15T12:26:52;5.30;;;1.30;;
22967;SDS011;11650;48.106;-1.696;2023-04-15T12:29:18;3.73;;;1.10;;
22967;SDS011;11650;48.106;-1.696;2023-04-15T12:34:54;9.50;;;1.30;;
22967;SDS011;11650;48.106;-1.696;2023-04-15T12:37:15;8.77;;;1.40;;
22967;SDS011;11650;48.106;-1.696;2023-04-15T12:39:42;4.93;;;1.10;;
22967;SDS011;11650;48.106;-1.696;2023-04-15T12:42:08;2.90;;;0.90;;
22967;SDS011;11650;48.106;-1.696;2023-04-15T12:44:35;3.07;;;0.97;;
22967;SDS011;11650;48.106;-1.696;2023-04-15T12:47:02;7.87;;;1.10;;
22967;SDS011;11650;48.106;-1.696;2023-04-15T12:49:28;3.53;;;1.03;;
22967;SDS011;11650;48.106;-1.696;2023-04-15T12:51:54;3.93;;;1.00;;
22967;SDS011;11650;48.106;-1.696;2023-04-15T12:54:21;2.70;;;1.00;;
22967;SDS011;11650;48.106;-1.696;2023-04-15T12:56:47;3.67;;;1.03;;
22967;SDS011;11650;48.106;-1.696;2023-04-15T12:59:14;5.13;;;0.90;;
22967;SDS011;11650;48.106;-1.696;2023-04-15T13:01:42;5.70;;;1.20;;
22967;SDS011;11650;48.106;-1.696;2023-04-15T13:04:09;3.10;;;1.07;;
22967;SDS011;11650;48.106;-1.696;2023-04-15T13:06:35;8.13;;;1.40;;
22967;SDS011;11650;48.106;-1.696;2023-04-15T13:09:01;3.80;;;1.07;;
22967;SDS011;11650;48.106;-1.696;2023-04-15T13:11:27;3.00;;;1.00;;
22967;SDS011;11650;48.106;-1.696;2023-04-15T13:13:58;3.63;;;1.03;;
22967;SDS011;11650;48.106;-1.696;2023-04-15T13:16:28;2.70;;;1.10;;
22967;SDS011;11650;48.106;-1.696;2023-04-15T13:18:55;3.43;;;1.30;;
22967;SDS011;11650;48.106;-1.696;2023-04-15T13:21:21;5.70;;;1.20;;
22967;SDS011;11650;48.106;-1.696;2023-04-15T13:23:47;4.33;;;1.20;;
22967;SDS011;11650;48.106;-1.696;2023-04-15T13:26:15;3.87;;;1.20;;
22967;SDS011;11650;48.106;-1.696;2023-04-15T13:28:41;6.73;;;1.57;;
22967;SDS011;11650;48.106;-1.696;2023-04-15T13:31:07;4.40;;;1.33;;
22967;SDS011;11650;48.106;-1.696;2023-04-15T13:33:32;4.53;;;1.17;;
22967;SDS011;11650;48.106;-1.696;2023-04-15T13:35:58;4.43;;;1.10;;
22967;SDS011;11650;48.106;-1.696;2023-04-15T13:38:24;4.10;;;1.20;;
22967;SDS011;11650;48.106;-1.696;2023-04-15T13:40:50;3.20;;;1.30;;
22967;SDS011;11650;48.106;-1.696;2023-04-15T13:43:15;6.83;;;1.30;;
22967;SDS011;11650;48.106;-1.696;2023-04-15T13:45:41;4.37;;;1.07;;
22967;SDS011;11650;48.106;-1.696;2023-04-15T13:48:07;4.80;;;1.30;;
22967;SDS011;11650;48.106;-1.696;2023-04-15T13:50:33;7.87;;;1.40;;
22967;SDS011;11650;48.106;-1.696;2023-04-15T13:52:58;4.00;;;1.13;;
22967;SDS011;11650;48.106;-1.696;2023-04-15T13:55:24;3.47;;;1.10;;
22967;SDS011;11650;48.106;-1.696;2023-04-15T13:57:50;6.50;;;1.40;;
22967;SDS011;11650;48.106;-1.696;2023-04-15T14:00:16;3.50;;;1.13;;
22967;SDS011;11650;48.106;-1.696;2023-04-15T14:02:42;4.87;;;1.10;;
22967;SDS011;11650;48.106;-1.696;2023-04-15T14:05:07;6.30;;;1.27;;
22967;SDS011;11650;48.106;-1.696;2023-04-15T14:07:34;4.07;;;1.40;;
22967;SDS011;11650;48.106;-1.696;2023-04-15T14:10:00;5.30;;;1.40;;
22967;SDS011;11650;48.106;-1.696;2023-04-15T14:12:26;4.87;;;1.23;;
22967;SDS011;11650;48.106;-1.696;2023-04-15T14:14:51;2.93;;;1.23;;
22967;SDS011;11650;48.106;-1.696;2023-04-15T14:17:17;3.37;;;1.13;;
22967;SDS011;11650;48.106;-1.696;2023-04-15T14:19:43;4.23;;;1.20;;
22967;SDS011;11650;48.106;-1.696;2023-04-15T14:22:08;3.37;;;1.20;;
22967;SDS011;11650;48.106;-1.696;2023-04-15T14:24:34;2.77;;;1.20;;
22967;SDS011;11650;48.106;-1.696;2023-04-15T14:27:00;3.43;;;1.00;;
22967;SDS011;11650;48.106;-1.696;2023-04-15T14:29:26;3.97;;;1.10;;
22967;SDS011;11650;48.106;-1.696;2023-04-15T14:31:52;5.33;;;1.60;;
22967;SDS011;11650;48.106;-1.696;2023-04-15T14:34:18;4.23;;;1.30;;
22967;SDS011;11650;48.106;-1.696;2023-04-15T14:36:46;3.40;;;1.10;;
22967;SDS011;11650;48.106;-1.696;2023-04-15T14:39:12;4.20;;;1.27;;
22967;SDS011;11650;48.106;-1.696;2023-04-15T14:41:38;2.40;;;1.03;;
22967;SDS011;11650;48.106;-1.696;2023-04-15T14:44:03;3.23;;;1.23;;
22967;SDS011;11650;48.106;-1.696;2023-04-15T14:46:29;1.77;;;0.93;;
22967;SDS011;11650;48.106;-1.696;2023-04-15T14:48:55;4.17;;;1.27;;
22967;SDS011;11650;48.106;-1.696;2023-04-15T14:51:21;3.20;;;1.13;;
22967;SDS011;11650;48.106;-1.696;2023-04-15T14:53:47;4.87;;;1.33;;
22967;SDS011;11650;48.106;-1.696;2023-04-15T14:56:13;2.97;;;1.07;;
22967;SDS011;11650;48.106;-1.696;2023-04-15T14:58:38;7.17;;;1.33;;